createdAt,value
2023-04-14T00:00:44.945Z,3.50
2023-04-14T00:03:13.127Z,2.87
2023-04-14T00:05:41.098Z,3.00
2023-04-14T00:08:10.291Z,2.30
2023-04-14T00:10:38.010Z,2.30
2023-04-14T00:13:05.802Z,2.60
2023-04-14T00:15:33.580Z,2.90
2023-04-14T00:18:01.411Z,3.00
2023-04-14T00:20:29.284Z,3.33
2023-04-14T00:22:57.004Z,3.50
2023-04-14T00:25:26.189Z,3.40
2023-04-14T00:27:53.904Z,3.00
2023-04-14T00:30:21.738Z,3.30
2023-04-14T00:32:49.536Z,3.47
2023-04-14T00:35:17.548Z,2.83
2023-04-14T00:37:45.291Z,3.00
2023-04-14T00:40:13.247Z,3.20
2023-04-14T00:42:45.618Z,3.40
2023-04-14T00:45:14.181Z,2.90
2023-04-14T00:47:46.987Z,3.30
2023-04-14T00:50:16.276Z,2.90
2023-04-14T00:52:44.863Z,3.03
2023-04-14T00:55:12.802Z,3.07
2023-04-14T00:57:41.311Z,3.70
2023-04-14T01:00:14.024Z,2.97
2023-04-14T01:02:42.468Z,3.70
2023-04-14T01:05:10.647Z,3.43
2023-04-14T01:07:38.996Z,3.43
2023-04-14T01:10:08.159Z,4.83
2023-04-14T01:12:50.395Z,3.00
2023-04-14T01:15:29.941Z,3.40
2023-04-14T01:18:04.349Z,4.30
2023-04-14T01:20:35.306Z,3.63
2023-04-14T01:23:08.074Z,3.20
2023-04-14T01:26:16.529Z,3.20
2023-04-14T01:29:00.392Z,3.30
2023-04-14T01:31:31.534Z,3.50
2023-04-14T01:34:07.315Z,2.70
2023-04-14T01:36:42.356Z,3.90
2023-04-14T01:39:14.131Z,3.27
2023-04-14T01:41:47.753Z,3.23
2023-04-14T01:44:19.336Z,4.30
2023-04-14T01:46:50.623Z,3.77
2023-04-14T01:49:20.192Z,3.20
2023-04-14T01:51:49.423Z,3.60
2023-04-14T01:54:19.073Z,4.17
2023-04-14T01:56:49.038Z,4.37
2023-04-14T01:59:18.353Z,3.80
2023-04-14T02:01:50.193Z,3.97
2023-04-14T02:04:20.083Z,3.90
2023-04-14T02:06:49.374Z,3.90
2023-04-14T02:09:18.268Z,3.63
2023-04-14T02:11:47.151Z,4.33
2023-04-14T02:14:16.498Z,3.77
2023-04-14T02:16:44.897Z,3.17
2023-04-14T02:19:15.029Z,3.27
2023-04-14T02:21:44.386Z,2.87
2023-04-14T02:24:12.259Z,3.10
2023-04-14T02:26:45.379Z,2.90
2023-04-14T02:29:16.150Z,3.07
2023-04-14T02:31:47.217Z,3.60
2023-04-14T02:34:19.920Z,3.40
2023-04-14T02:36:51.925Z,3.37
2023-04-14T02:39:23.024Z,3.50
2023-04-14T02:41:59.193Z,4.10
2023-04-14T02:44:30.303Z,3.30
2023-04-14T02:47:03.938Z,3.60
2023-04-14T02:49:35.279Z,3.90
2023-04-14T02:52:05.009Z,3.20
2023-04-14T02:54:35.473Z,3.30
2023-04-14T02:57:03.653Z,3.30
2023-04-14T02:59:32.150Z,4.00
2023-04-14T03:02:02.794Z,3.90
2023-04-14T03:04:33.564Z,4.53
2023-04-14T03:07:02.846Z,4.93
2023-04-14T03:09:31.387Z,2.90
2023-04-14T03:12:02.338Z,3.53
2023-04-14T03:14:31.768Z,3.77
2023-04-14T03:17:00.892Z,3.80
2023-04-14T03:19:29.565Z,3.00
2023-04-14T03:22:00.264Z,3.53
2023-04-14T03:24:31.115Z,3.70
2023-04-14T03:27:05.942Z,2.87
2023-04-14T03:29:38.882Z,3.47
2023-04-14T03:32:09.217Z,3.30
2023-04-14T03:34:42.158Z,3.40
2023-04-14T03:37:12.128Z,4.00
2023-04-14T03:39:41.281Z,4.07
2023-04-14T03:42:09.700Z,3.97
2023-04-14T03:44:42.970Z,3.80
2023-04-14T03:47:23.582Z,3.63
2023-04-14T03:49:57.052Z,3.27
2023-04-14T03:52:27.948Z,3.33
2023-04-14T03:55:00.324Z,3.20
2023-04-14T03:57:30.571Z,4.90
2023-04-14T03:59:59.306Z,4.07
2023-04-14T04:02:28.193Z,4.37
2023-04-14T04:04:57.401Z,4.63
2023-04-14T04:07:28.430Z,4.80
2023-04-14T04:09:57.927Z,3.00
2023-04-14T04:12:27.230Z,3.80
2023-04-14T04:14:54.952Z,3.50
2023-04-14T04:17:25.624Z,3.40
2023-04-14T04:19:55.508Z,4.13
2023-04-14T04:22:27.169Z,3.40
2023-04-14T04:24:56.912Z,3.23
2023-04-14T04:27:28.205Z,3.10
2023-04-14T04:29:56.843Z,3.53
2023-04-14T04:32:25.003Z,3.00
2023-04-14T04:34:55.186Z,3.80
2023-04-14T04:37:28.162Z,3.43
2023-04-14T04:39:59.105Z,3.20
2023-04-14T04:42:26.969Z,3.57
2023-04-14T04:44:54.726Z,3.17
2023-04-14T04:47:22.583Z,4.13
2023-04-14T04:49:50.282Z,3.27
2023-04-14T04:52:18.010Z,3.97
2023-04-14T04:54:45.843Z,3.77
2023-04-14T04:57:14.880Z,3.33
2023-04-14T04:59:42.572Z,3.50
2023-04-14T05:02:10.523Z,3.40
2023-04-14T05:04:38.273Z,3.93
2023-04-14T05:07:06.046Z,4.03
2023-04-14T05:09:33.756Z,3.53
2023-04-14T05:12:01.927Z,3.10
2023-04-14T05:14:31.000Z,3.40
2023-04-14T05:16:58.923Z,3.13
2023-04-14T05:19:26.624Z,2.80
2023-04-14T05:21:55.618Z,3.53
2023-04-14T05:24:23.428Z,3.67
2023-04-14T05:27:11.478Z,3.90
2023-04-14T05:29:40.373Z,4.80
2023-04-14T05:32:08.096Z,3.80
2023-04-14T05:34:35.860Z,3.77
2023-04-14T05:37:03.623Z,3.50
2023-04-14T05:39:31.358Z,4.80
2023-04-14T05:41:59.609Z,4.00
2023-04-14T05:44:27.351Z,4.03
2023-04-14T05:46:56.588Z,4.10
2023-04-14T05:49:24.427Z,4.57
2023-04-14T05:51:52.220Z,3.30
2023-04-14T05:54:22.941Z,3.67
2023-04-14T05:56:50.746Z,4.63
2023-04-14T05:59:18.475Z,4.07
2023-04-14T06:01:46.514Z,3.20
2023-04-14T06:04:16.321Z,3.90
2023-04-14T06:06:44.307Z,5.03
2023-04-14T06:09:12.012Z,6.27
2023-04-14T06:11:40.347Z,6.20
2023-04-14T06:14:08.121Z,5.93
2023-04-14T06:16:35.929Z,6.20
2023-04-14T06:19:03.978Z,6.23
2023-04-14T06:21:33.324Z,5.80
2023-04-14T06:24:01.234Z,5.50
2023-04-14T06:26:28.946Z,5.77
2023-04-14T06:28:57.350Z,5.03
2023-04-14T06:31:25.268Z,6.00
2023-04-14T06:33:53.136Z,6.25
2023-04-14T06:36:20.945Z,6.30
2023-04-14T06:38:50.175Z,6.57
2023-04-14T06:41:17.895Z,6.60
2023-04-14T06:43:46.236Z,8.40
2023-04-14T06:46:13.982Z,4.80
2023-04-14T06:48:41.848Z,5.00
2023-04-14T06:51:12.216Z,5.00
2023-04-14T06:53:39.917Z,4.93
2023-04-14T06:56:09.589Z,5.20
2023-04-14T06:58:37.411Z,5.90
2023-04-14T07:01:05.558Z,6.90
2023-04-14T07:03:34.380Z,6.67
2023-04-14T07:06:06.756Z,5.83
2023-04-14T07:08:35.377Z,6.60
2023-04-14T07:11:04.771Z,6.73
2023-04-14T07:13:34.266Z,5.60
2023-04-14T07:16:03.231Z,5.67
2023-04-14T07:18:31.647Z,6.00
2023-04-14T07:20:59.948Z,5.70
2023-04-14T07:23:27.816Z,6.70
2023-04-14T07:25:57.464Z,5.33
2023-04-14T07:28:26.740Z,5.83
2023-04-14T07:30:55.889Z,5.37
2023-04-14T07:33:23.754Z,6.00
2023-04-14T07:36:02.163Z,6.00
2023-04-14T07:38:31.667Z,6.83
2023-04-14T07:40:59.530Z,5.20
2023-04-14T07:43:27.316Z,5.20
2023-04-14T07:45:56.423Z,5.13
2023-04-14T07:48:24.216Z,4.83
2023-04-14T07:50:51.940Z,5.03
2023-04-14T07:53:19.666Z,4.23
2023-04-14T07:55:47.370Z,4.60
2023-04-14T07:58:15.787Z,4.20
2023-04-14T08:00:44.015Z,4.90
2023-04-14T08:03:13.766Z,5.40
2023-04-14T08:05:42.550Z,5.83
2023-04-14T08:08:11.097Z,6.00
2023-04-14T08:10:38.897Z,6.40
2023-04-14T08:13:06.646Z,7.40
2023-04-14T08:15:34.394Z,6.43
2023-04-14T08:18:02.320Z,6.50
2023-04-14T08:20:31.620Z,7.70
2023-04-14T08:22:59.487Z,6.93
2023-04-14T08:25:27.193Z,6.77
2023-04-14T08:27:54.903Z,7.27
2023-04-14T08:30:23.072Z,8.60
2023-04-14T08:32:50.948Z,8.10
2023-04-14T08:35:36.913Z,9.80
2023-04-14T08:38:08.472Z,7.63
2023-04-14T08:40:39.152Z,7.03
2023-04-14T08:43:07.182Z,7.30
2023-04-14T08:45:35.570Z,6.80
2023-04-14T08:48:05.132Z,6.90
2023-04-14T08:50:37.361Z,6.63
2023-04-14T08:53:09.894Z,6.60
2023-04-14T08:55:41.658Z,7.53
2023-04-14T08:58:11.296Z,5.70
2023-04-14T09:00:39.812Z,7.87
2023-04-14T09:03:15.994Z,6.17
2023-04-14T09:05:45.124Z,6.37
2023-04-14T09:08:14.457Z,7.10
2023-04-14T09:10:42.769Z,7.30
2023-04-14T09:13:15.025Z,6.37
2023-04-14T09:15:43.487Z,7.00
2023-04-14T09:18:12.182Z,6.10
2023-04-14T09:20:41.279Z,6.57
2023-04-14T09:23:10.525Z,6.37
2023-04-14T09:25:43.244Z,7.13
2023-04-14T09:28:11.932Z,7.10
2023-04-14T09:30:39.777Z,6.70
2023-04-14T09:33:08.247Z,7.37
2023-04-14T09:35:46.015Z,8.47
2023-04-14T09:38:13.982Z,7.10
2023-04-14T09:40:45.348Z,7.30
2023-04-14T09:43:27.680Z,8.10
2023-04-14T09:45:56.456Z,6.97
2023-04-14T09:48:25.248Z,6.57
2023-04-14T09:51:01.384Z,7.47
2023-04-14T09:53:30.597Z,7.20
2023-04-14T09:56:02.655Z,7.93
2023-04-14T09:58:32.602Z,7.60
2023-04-14T10:01:00.491Z,7.07
2023-04-14T10:03:36.127Z,7.50
2023-04-14T10:06:07.282Z,7.27
2023-04-14T10:08:37.031Z,6.60
2023-04-14T10:11:20.243Z,6.70
2023-04-14T10:13:49.634Z,6.57
2023-04-14T10:16:17.655Z,7.13
2023-04-14T10:18:45.590Z,6.80
2023-04-14T10:21:14.675Z,7.30
2023-04-14T10:23:43.298Z,6.63
2023-04-14T10:26:12.910Z,6.63
2023-04-14T10:28:45.577Z,6.20
2023-04-14T10:31:16.729Z,7.43
2023-04-14T10:33:44.599Z,6.07
2023-04-14T10:36:12.370Z,7.23
2023-04-14T10:38:43.372Z,7.40
2023-04-14T10:41:11.879Z,8.00
2023-04-14T10:43:39.933Z,7.10
2023-04-14T10:46:11.265Z,6.77
2023-04-14T10:48:41.255Z,8.30
2023-04-14T10:51:10.857Z,8.13
2023-04-14T10:53:45.891Z,8.53
2023-04-14T10:56:14.275Z,8.17
2023-04-14T10:58:42.014Z,8.10
2023-04-14T11:01:29.935Z,8.33
2023-04-14T11:03:58.539Z,6.40
2023-04-14T11:06:52.754Z,8.23
2023-04-14T11:09:32.265Z,8.10
2023-04-14T11:12:05.055Z,8.03
2023-04-14T11:14:33.981Z,8.70
2023-04-14T11:17:05.577Z,8.03
2023-04-14T11:19:33.735Z,8.70
2023-04-14T11:22:01.501Z,8.30
2023-04-14T11:24:29.556Z,9.40
2023-04-14T11:26:57.923Z,8.73
2023-04-14T11:29:25.721Z,7.27
2023-04-14T11:32:05.746Z,8.17
2023-04-14T11:34:34.354Z,7.60
2023-04-14T11:37:03.871Z,6.47
2023-04-14T11:39:31.800Z,6.23
2023-04-14T11:42:01.109Z,6.20
2023-04-14T11:44:28.852Z,7.57
2023-04-14T11:46:56.793Z,6.90
2023-04-14T11:49:36.492Z,7.40
2023-04-14T11:52:10.091Z,8.20
2023-04-14T11:54:38.783Z,7.27
2023-04-14T11:57:11.159Z,5.23
2023-04-14T11:59:43.940Z,6.90
2023-04-14T12:02:17.503Z,6.37
2023-04-14T12:04:48.555Z,8.10
2023-04-14T12:07:19.807Z,6.70
2023-04-14T12:09:50.053Z,5.53
2023-04-14T12:12:19.996Z,7.07
2023-04-14T12:14:49.751Z,4.20
2023-04-14T12:17:20.291Z,5.50
2023-04-14T12:19:49.976Z,6.60
2023-04-14T12:22:27.192Z,4.97
2023-04-14T12:24:56.252Z,4.63
2023-04-14T12:27:25.420Z,5.03
2023-04-14T12:29:53.524Z,5.50
2023-04-14T12:32:22.860Z,5.30
2023-04-14T12:34:57.688Z,4.60
2023-04-14T12:37:27.346Z,3.40
2023-04-14T12:39:58.939Z,3.65
2023-04-14T12:42:27.096Z,5.10
2023-04-14T12:44:56.121Z,5.50
2023-04-14T12:47:31.427Z,5.40
2023-04-14T12:50:02.562Z,3.33
2023-04-14T12:52:34.480Z,4.10
2023-04-14T12:55:03.060Z,3.53
2023-04-14T12:57:31.482Z,3.93
2023-04-14T12:59:59.474Z,3.53
2023-04-14T13:02:29.506Z,4.13
2023-04-14T13:04:57.648Z,4.73
2023-04-14T13:07:26.781Z,4.10
2023-04-14T13:09:54.560Z,3.10
2023-04-14T13:12:22.347Z,2.50
2023-04-14T13:14:50.574Z,2.80
2023-04-14T13:17:18.433Z,2.57
2023-04-14T13:19:46.379Z,2.20
2023-04-14T13:22:14.893Z,2.67
2023-04-14T13:24:43.964Z,2.27
2023-04-14T13:27:11.844Z,1.80
2023-04-14T13:29:41.147Z,2.13
2023-04-14T13:32:11.078Z,2.43
2023-04-14T13:34:39.685Z,2.73
2023-04-14T13:37:07.545Z,2.40
2023-04-14T13:39:35.284Z,2.77
2023-04-14T13:42:04.469Z,3.50
2023-04-14T13:44:33.089Z,3.50
2023-04-14T13:47:00.810Z,2.60
2023-04-14T13:49:28.522Z,3.03
2023-04-14T13:51:56.226Z,2.90
2023-04-14T13:54:32.834Z,3.70
2023-04-14T13:57:09.388Z,5.30
2023-04-14T13:59:37.670Z,4.37
2023-04-14T14:02:09.642Z,5.83
2023-04-14T14:04:38.272Z,5.50
2023-04-14T14:07:06.713Z,5.73
2023-04-14T14:09:34.418Z,5.50
2023-04-14T14:12:02.358Z,5.07
2023-04-14T14:14:31.519Z,5.23
2023-04-14T14:16:59.316Z,5.00
2023-04-14T14:19:27.138Z,4.80
2023-04-14T14:21:54.939Z,3.47
2023-04-14T14:24:22.706Z,3.30
2023-04-14T14:26:50.533Z,3.23
2023-04-14T14:29:18.266Z,4.20
2023-04-14T14:31:47.374Z,5.67
2023-04-14T14:34:15.936Z,4.30
2023-04-14T14:36:44.467Z,3.50
2023-04-14T14:39:12.176Z,3.40
2023-04-14T14:41:39.979Z,3.93
2023-04-14T14:44:07.853Z,4.37
2023-04-14T14:46:35.951Z,2.93
2023-04-14T14:49:05.409Z,3.43
2023-04-14T14:51:33.160Z,4.07
2023-04-14T14:54:09.183Z,3.53
2023-04-14T14:56:37.842Z,3.90
2023-04-14T14:59:05.695Z,3.00
2023-04-14T15:01:34.169Z,3.60
2023-04-14T15:04:02.322Z,3.30
2023-04-14T15:06:32.819Z,3.40
2023-04-14T15:09:01.521Z,3.40
2023-04-14T15:11:29.545Z,3.50
2023-04-14T15:13:58.431Z,3.77
2023-04-14T15:16:26.318Z,2.97
2023-04-14T15:18:54.206Z,3.10
2023-04-14T15:21:21.969Z,3.20
2023-04-14T15:23:51.047Z,3.80
2023-04-14T15:26:19.107Z,4.70
2023-04-14T15:28:48.096Z,2.67
2023-04-14T15:31:15.884Z,3.30
2023-04-14T15:33:44.398Z,3.10
2023-04-14T15:36:12.205Z,3.20
2023-04-14T15:38:40.176Z,3.80
2023-04-14T15:41:09.275Z,3.00
2023-04-14T15:43:37.004Z,2.87
2023-04-14T15:46:04.788Z,2.37
2023-04-14T15:48:32.565Z,2.53
2023-04-14T15:51:00.280Z,2.40
2023-04-14T15:53:28.010Z,2.40
2023-04-14T15:55:55.743Z,2.57
2023-04-14T15:58:24.848Z,2.47
2023-04-14T16:00:52.690Z,2.30
2023-04-14T16:03:20.696Z,2.00
2023-04-14T16:05:48.557Z,2.70
2023-04-14T16:08:16.871Z,2.60
2023-04-14T16:10:44.645Z,2.40
2023-04-14T16:13:13.500Z,2.10
2023-04-14T16:15:42.802Z,1.80
2023-04-14T16:18:10.561Z,2.20
2023-04-14T16:20:38.306Z,2.00
2023-04-14T16:23:06.055Z,1.70
2023-04-14T16:25:34.398Z,1.70
2023-04-14T16:28:02.200Z,1.80
2023-04-14T16:30:29.950Z,1.90
2023-04-14T16:32:59.017Z,1.60
2023-04-14T16:35:26.754Z,1.57
2023-04-14T16:37:54.495Z,1.70
2023-04-14T16:40:22.306Z,1.97
2023-04-14T16:42:50.000Z,1.40
2023-04-14T16:45:19.102Z,1.43
2023-04-14T16:47:47.114Z,1.80
2023-04-14T16:50:16.251Z,1.93
2023-04-14T16:52:44.055Z,1.70
2023-04-14T16:55:12.464Z,2.07
2023-04-14T16:57:40.235Z,2.20
2023-04-14T17:00:12.037Z,2.30
2023-04-14T17:02:40.648Z,2.50
2023-04-14T17:05:10.118Z,2.13
2023-04-14T17:07:39.342Z,2.30
2023-04-14T17:10:07.924Z,2.70
2023-04-14T17:12:35.705Z,3.33
2023-04-14T17:15:04.428Z,2.97
2023-04-14T17:17:33.712Z,3.53
2023-04-14T17:20:01.761Z,3.70
2023-04-14T17:22:29.512Z,3.80
2023-04-14T17:24:58.597Z,4.10
2023-04-14T17:27:26.383Z,3.70
2023-04-14T17:29:54.599Z,3.83
2023-04-14T17:32:22.462Z,3.63
2023-04-14T17:34:50.457Z,3.90
2023-04-14T17:37:18.634Z,3.40
2023-04-14T17:39:49.055Z,3.47
2023-04-14T17:42:18.141Z,3.47
2023-04-14T17:44:45.986Z,3.73
2023-04-14T17:47:15.391Z,3.07
2023-04-14T17:49:43.761Z,3.03
2023-04-14T17:52:12.590Z,3.00
2023-04-14T17:54:40.491Z,2.70
2023-04-14T17:57:10.761Z,2.93
2023-04-14T17:59:40.394Z,3.60
2023-04-14T18:02:08.450Z,3.17
2023-04-14T18:04:36.309Z,2.83
2023-04-14T18:07:04.545Z,2.80
2023-04-14T18:09:32.268Z,2.87
2023-04-14T18:12:00.201Z,2.90
2023-04-14T18:14:27.905Z,2.70
2023-04-14T18:16:57.204Z,3.03
2023-04-14T18:19:25.210Z,3.10
2023-04-14T18:21:53.064Z,2.97
2023-04-14T18:26:55.108Z,3.27
2023-04-14T18:29:22.884Z,3.50
2023-04-14T18:31:51.169Z,3.03
2023-04-14T18:34:20.514Z,3.20
2023-04-14T18:36:48.247Z,3.63
2023-04-14T18:39:16.337Z,4.37
2023-04-14T18:41:44.107Z,3.87
2023-04-14T18:44:12.078Z,4.00
2023-04-14T18:46:40.412Z,3.60
2023-04-14T18:49:08.144Z,3.30
2023-04-14T18:51:37.201Z,3.10
2023-04-14T18:54:05.616Z,3.30
2023-04-14T18:56:33.330Z,3.20
2023-04-14T18:59:02.490Z,3.17
2023-04-14T19:01:30.526Z,3.20
2023-04-14T19:03:58.434Z,2.87
2023-04-14T19:06:26.534Z,2.90
2023-04-14T19:08:56.007Z,3.00
2023-04-14T19:11:23.839Z,2.97
2023-04-14T19:13:51.857Z,3.07
2023-04-14T19:16:19.675Z,3.13
2023-04-14T19:18:47.517Z,3.70
2023-04-14T19:21:15.359Z,2.90
2023-04-14T19:23:43.083Z,3.30
2023-04-14T19:26:13.505Z,2.90
2023-04-14T19:28:42.355Z,3.57
2023-04-14T19:31:10.204Z,3.10
2023-04-14T19:33:39.097Z,3.17
2023-04-14T19:36:14.854Z,3.27
2023-04-14T19:38:42.896Z,2.87
2023-04-14T19:41:12.162Z,2.77
2023-04-14T19:43:39.871Z,2.40
2023-04-14T19:46:09.575Z,2.70
2023-04-14T19:48:37.588Z,2.20
2023-04-14T19:51:05.652Z,1.70
2023-04-14T19:53:33.492Z,2.30
2023-04-14T19:56:01.960Z,2.33
2023-04-14T19:58:32.624Z,2.90
2023-04-14T20:01:00.998Z,2.67
2023-04-14T20:03:29.628Z,2.07
2023-04-14T20:05:58.559Z,2.50
2023-04-14T20:08:27.392Z,2.70
2023-04-14T20:10:55.824Z,2.43
2023-04-14T20:13:27.480Z,2.57
2023-04-14T20:15:56.532Z,2.00
2023-04-14T20:18:25.937Z,2.23
2023-04-14T20:20:54.705Z,3.33
2023-04-14T20:23:22.786Z,2.70
2023-04-14T20:25:51.251Z,2.50
2023-04-14T20:28:19.906Z,2.57
2023-04-14T20:30:49.308Z,2.27
2023-04-14T20:33:21.261Z,2.50
2023-04-14T20:35:51.377Z,3.03
2023-04-14T20:38:19.123Z,3.00
2023-04-14T20:40:47.436Z,2.83
2023-04-14T20:43:15.755Z,3.13
2023-04-14T20:45:43.591Z,3.23
2023-04-14T20:48:11.322Z,3.20
2023-04-14T20:50:40.542Z,3.10
2023-04-14T20:53:08.802Z,2.63
2023-04-14T20:55:37.117Z,2.93
2023-04-14T20:58:05.708Z,3.53
2023-04-14T21:00:34.356Z,3.30
2023-04-14T21:03:03.492Z,3.10
2023-04-14T21:05:31.459Z,3.03
2023-04-14T21:08:00.651Z,2.83
2023-04-14T21:10:28.437Z,3.70
2023-04-14T21:15:30.843Z,3.47
2023-04-14T21:15:50.457Z,2.93
2023-04-14T21:18:18.999Z,2.57
2023-04-14T21:20:46.763Z,2.90
2023-04-14T21:23:16.052Z,3.47
2023-04-14T21:25:43.829Z,2.80
2023-04-14T21:28:11.556Z,2.90
2023-04-14T21:30:39.615Z,2.77
2023-04-14T21:33:08.727Z,2.80
2023-04-14T21:35:36.538Z,2.70
2023-04-14T21:38:04.436Z,2.90
2023-04-14T21:40:36.760Z,2.77
2023-04-14T21:43:04.582Z,2.97
2023-04-14T21:45:32.770Z,3.10
2023-04-14T21:48:00.861Z,2.90
2023-04-14T21:50:28.706Z,2.90
2023-04-14T21:52:57.107Z,2.73
2023-04-14T21:55:24.985Z,3.00
2023-04-14T21:57:55.451Z,3.00
2023-04-14T22:00:26.052Z,3.17
2023-04-14T22:02:53.842Z,2.90
2023-04-14T22:05:21.676Z,2.47
2023-04-14T22:07:49.828Z,2.60
2023-04-14T22:10:17.538Z,2.50
2023-04-14T22:12:45.661Z,2.60
2023-04-14T22:15:15.494Z,2.90
2023-04-14T22:17:44.807Z,3.50
2023-04-14T22:20:13.133Z,3.03
2023-04-14T22:22:40.965Z,3.17
2023-04-14T22:25:11.490Z,3.10
2023-04-14T22:27:39.218Z,3.40
2023-04-14T22:30:08.142Z,3.97
2023-04-14T22:32:37.322Z,3.90
2023-04-14T22:35:05.748Z,3.70
2023-04-14T22:37:33.760Z,3.40
2023-04-14T22:40:02.969Z,3.80
2023-04-14T22:42:30.898Z,3.87
2023-04-14T22:44:58.663Z,3.77
2023-04-14T22:47:30.738Z,4.13
2023-04-14T22:50:00.067Z,3.70
2023-04-14T22:52:28.518Z,4.07
2023-04-14T22:54:56.406Z,3.97
2023-04-14T22:57:24.121Z,4.43
2023-04-14T22:59:51.829Z,4.10
2023-04-14T23:02:19.714Z,4.33
2023-04-14T23:04:47.911Z,3.70
2023-04-14T23:07:17.105Z,4.10
2023-04-14T23:09:44.804Z,4.43
2023-04-14T23:12:12.529Z,4.20
2023-04-14T23:14:40.521Z,4.03
2023-04-14T23:17:08.240Z,3.70
2023-04-14T23:19:36.086Z,4.33
2023-04-14T23:22:04.382Z,4.27
2023-04-14T23:24:33.450Z,4.53
2023-04-14T23:27:01.167Z,4.27
2023-04-14T23:29:28.841Z,4.20
2023-04-14T23:31:56.756Z,4.07
2023-04-14T23:34:24.621Z,3.73
2023-04-14T23:36:52.307Z,3.80
2023-04-14T23:39:19.996Z,4.57
2023-04-14T23:41:49.050Z,4.97
2023-04-14T23:44:17.381Z,4.77
2023-04-14T23:46:45.317Z,4.65
2023-04-14T23:49:24.394Z,5.73
2023-04-14T23:52:00.846Z,4.10
2023-04-14T23:54:30.663Z,4.80
2023-04-14T23:56:59.724Z,4.60
2023-04-14T23:59:27.501Z,5.17
